School House Canyon (220) Station Data

Red Flag Warning: No
Fire Weather Zone: 250
SDGE Region: Ramona
Lat/Lon: 33.146/-116.641

Observations

Time Wind Speed/Gust Temp(F) RH Fuel Moist Fuel Temp(F) Dewpt(F) Tmax(F) Tmin(F) Accum Precip 10-min Precip SL Press(mb)
6/27 5:00pm 238 9 G 19 82° 14% - - 28° 86° 71.4° - - -
6/27 4:50pm 234 9 G 15 82° 15% - - 29° 86° 71.4° - - -
6/27 4:40pm 222 8 G 16 82° 15% - - 29° 86° 71.4° - - -
6/27 4:30pm 227 9 G 18 83° 14% - - 29° 86° 71.4° - - -
6/27 4:20pm 220 10 G 19 82° 14% - - 28° 86° 71.4° - - -
6/27 4:10pm 226 8 G 16 83° 14% - - 30° 86° 71.4° - - -
6/27 4:00pm 219 11 G 20 82° 15% - - 29° 86° 71.4° - - -
6/27 3:50pm 226 11 G 19 83° 15% - - 31° 86° 71.4° - - -
6/27 3:40pm 238 10 G 18 83° 16% - - 33° 86° 71.4° - - -
6/27 3:30pm 234 11 G 20 83° 18% - - 34° 86° 71.4° - - -
6/27 3:20pm 237 11 G 20 83° 19% - - 36° 86° 71.4° - - -
6/27 3:10pm 234 10 G 19 83° 18% - - 36° 86° 71.4° - - -
6/27 3:00pm 224 10 G 21 83° 18% - - 35° 86° 71.4° - - -
6/27 2:50pm 239 12 G 21 83° 18% - - 36° 86° 71.4° - - -
6/27 2:40pm 233 12 G 20 84° 18% - - 36° 86° 71.4° - - -
6/27 2:30pm 225 11 G 19 83° 19% - - 37° 86° 71.4° - - -
6/27 2:20pm 239 12 G 23 84° 19% - - 37° 86° 71.4° - - -
6/27 2:10pm 226 11 G 20 84° 17% - - 35° 86° 71.4° - - -
6/27 2:00pm 220 9 G 19 84° 17% - - 35° 86° 71.4° - - -
6/27 1:50pm 238 11 G 20 83° 16% - - 33° 86° 71.4° - - -
6/27 1:40pm 218 11 G 22 84° 15% - - 31° 86° 71.4° - - -
6/27 1:30pm 224 9 G 17 84° 14% - - 30° 86° 71.4° - - -
6/27 1:20pm 235 10 G 17 84° 14% - - 30° 86° 71.4° - - -
6/27 1:10pm 233 9 G 16 84° 14% - - 29° 86° 71.4° - - -
6/27 1:00pm 233 9 G 17 85° 14% - - 30° 86° 71.4° - - -
6/27 12:50pm 232 9 G 21 83° 14% - - 29° 85° 71.4° - - -
6/27 12:40pm 229 10 G 20 84° 14% - - 30° 85° 71.4° - - -
6/27 12:30pm 224 9 G 17 84° 14% - - 30° 84.5° 71.4° - - -
6/27 12:20pm 227 8 G 19 83° 14% - - 29° 84.5° 71.4° - - -
6/27 12:10pm 227 10 G 20 82° 14% - - 28° 84.2° 71.4° - - -
6/27 12:00pm 217 9 G 19 82° 14% - - 28° 84.2° 71.4° - - -
6/27 11:50am 233 7 G 14 83° 14% - - 29° 84.2° 71.4° - - -
6/27 11:40am 230 8 G 15 83° 14% - - 29° 83.5° 71.4° - - -
6/27 11:30am 221 6 G 14 82° 15% - - 29° 83.1° 71.4° - - -
6/27 11:20am 223 8 G 15 82° 15% - - 29° 82.5° 71.4° - - -
6/27 11:10am 228 7 G 14 81° 15% - - 28° 82.1° 71.4° - - -
6/27 11:00am 233 10 G 16 80° 14% - - 26° 81.4° 71.4° - - -
6/27 10:50am 239 10 G 22 80° 14% - - 27° 81.4° 71.4° - - -
6/27 10:40am 229 9 G 16 81° 15% - - 28° 81.4° 71.4° - - -
6/27 10:30am 217 8 G 16 80° 15% - - 28° 81° 71.4° - - -
6/27 10:20am 222 7 G 14 80° 15% - - 29° 80.7° 71.4° - - -
6/27 10:10am 239 9 G 17 79° 15% - - 28° 80° 71.4° - - -
6/27 10:00am 223 6 G 12 79° 16% - - 29° 79.9° 71.4° - - -
6/27 9:50am 231 5 G 11 79° 17% - - 30° 79.5° 71.4° - - -
6/27 9:40am 241 6 G 10 78° 17% - - 30° 79.2° 71.4° - - -
6/27 9:30am 227 6 G 9 78° 17% - - 29° 78° 71.4° - - -
6/27 9:20am 233 7 G 12 77° 16% - - 27° 77.6° 71.4° - - -
6/27 9:10am 237 6 G 11 77° 16% - - 28° 77.3° 71.4° - - -
6/27 9:00am 234 5 G 8 76° 16% - - 27° 77° 71.4° - - -
6/27 8:50am 255 5 G 8 76° 16% - - 26° 76.8° 71.4° - - -
6/27 8:40am 264 4 G 9 76° 15% - - 25° 76.6° 71.4° - - -
6/27 8:30am 284 4 G 7 76° 15% - - 24° 76.3° 71.4° - - -
6/27 8:20am 271 3 G 7 75° 15% - - 24° 75.8° 71.4° - - -
6/27 8:10am 274 3 G 5 75° 14% - - 23° 75.7° 71.4° - - -
6/27 8:00am 293 3 G 6 75° 13% - - 21° 75.7° 71.4° - - -
6/27 7:50am 304 4 G 7 75° 13% - - 21° 75.5° 71.4° - - -
6/27 7:40am 319 3 G 8 75° 13% - - 22° 75.5° 71.4° - - -
6/27 7:30am 334 4 G 8 74° 14% - - 21° 75.4° 71.4° - - -
6/27 7:20am 332 4 G 6 74° 13% - - 21° 75.4° 71.4° - - -
6/27 7:10am 345 4 G 9 74° 13% - - 20° 75.4° 71.4° - - -
6/27 7:00am 344 4 G 7 74° 12% - - 18° 75.4° 71.4° - - -
6/27 6:50am 324 5 G 9 74° 12% - - 17° 75.4° 71.4° - - -
6/27 6:40am 316 4 G 10 73° 12% - - 17° 75.4° 71.4° - - -
6/27 6:30am 318 5 G 10 73° 12% - - 17° 75.4° 71.4° - - -
6/27 6:20am 315 5 G 10 73° 12% - - 17° 75.4° 71.4° - - -
6/27 6:10am 294 4 G 10 73° 11% - - 16° 75.4° 71.4° - - -
6/27 6:00am 286 4 G 12 74° 11% - - 16° 75.4° 71.4° - - -
6/27 5:50am 297 5 G 11 73° 12% - - 18° 75.4° 71.4° - - -
6/27 5:40am 293 5 G 11 74° 12% - - 18° 75.4° 71.4° - - -
6/27 5:30am 282 5 G 9 73° 12% - - 19° 75.4° 71.4° - - -
6/27 5:20am 293 5 G 10 73° 13% - - 19° 75.4° 71.4° - - -
6/27 5:10am 296 4 G 9 73° 14% - - 21° 75.4° 71.4° - - -
6/27 5:00am 289 5 G 11 73° 14% - - 22° 75.4° 71.4° - - -
6/27 4:50am 293 5 G 9 73° 14% - - 21° 75.4° 71.4° - - -
6/27 4:40am 287 5 G 11 73° 14% - - 21° 75.4° 71.4° - - -
6/27 4:30am 286 5 G 11 73° 14% - - 21° 75.4° 71.4° - - -
6/27 4:20am 281 4 G 9 73° 14% - - 21° 75.4° 71.4° - - -
6/27 4:10am 268 5 G 11 73° 14% - - 21° 75.4° 71.4° - - -
6/27 4:00am 276 5 G 12 73° 14% - - 22° 75.4° 71.4° - - -
6/27 3:50am 283 4 G 8 73° 14% - - 22° 75.4° 71.4° - - -
6/27 3:40am 281 4 G 11 74° 14% - - 22° 75.4° 71.4° - - -
6/27 3:30am 290 5 G 11 74° 14% - - 22° 75.4° 71.4° - - -
6/27 3:20am 277 5 G 13 74° 14% - - 22° 75.4° 71.4° - - -
6/27 3:10am 282 6 G 11 74° 14% - - 22° 75.4° 71.4° - - -
6/27 3:00am 275 5 G 12 74° 14% - - 22° 75.4° 71.4° - - -
6/27 2:50am 274 6 G 14 75° 14% - - 22° 75.4° 71.4° - - -
6/27 2:40am 278 8 G 15 75° 13% - - 21° 75.2° 71.4° - - -
6/27 2:30am 272 7 G 13 74° 14% - - 21° 75° 71.4° - - -
6/27 2:20am 275 6 G 15 73° 15% - - 22° 75° 71.4° - - -
6/27 2:10am 291 5 G 12 73° 15% - - 22° 75° 71.4° - - -
6/27 2:00am 283 4 G 9 72° 15% - - 22° 75° 71.4° - - -
6/27 1:50am 291 3 G 8 72° 15% - - 22° 75° 71.4° - - -
6/27 1:40am 295 3 G 8 72° 15% - - 22° 75° 71.4° - - -
6/27 1:30am 308 3 G 5 72° 15% - - 21° 75° 71.9° - - -
6/27 1:20am 302 3 G 7 73° 14% - - 21° 75° 71.9° - - -
6/27 1:10am 298 2 G 5 73° 14% - - 21° 75° 72.1° - - -
6/27 1:00am 306 2 G 5 73° 14% - - 20° 75° 72.4° - - -
6/27 12:50am 317 4 G 7 73° 13% - - 20° 75° 72.6° - - -
6/27 12:40am 324 4 G 7 73° 14% - - 21° 75° 72.6° - - -
6/27 12:30am 316 4 G 9 73° 14% - - 21° 75° 72.6° - - -
6/27 12:20am 292 3 G 6 74° 13% - - 21° 75° 73.2° - - -
6/27 12:10am 274 4 G 8 74° 13% - - 20° 75° 73.7° - - -
6/27 12:00am 262 6 G 12 75° 12% - - 19° 91° 74.2° - - -
6/26 11:50pm 271 4 G 9 75° 12% - - 19° 91° 74.3° - - -
6/26 11:40pm 271 3 G 7 75° 12% - - 19° 91° 74.4° - - -
6/26 11:30pm 279 3 G 8 75° 12% - - 20° 91° 74.4° - - -
6/26 11:20pm 286 4 G 11 75° 12% - - 19° 91° 74.4° - - -
6/26 11:10pm 287 5 G 8 75° 12% - - 20° 91° 74.4° - - -
6/26 11:00pm 293 4 G 8 75° 13% - - 20° 91° 74.4° - - -
6/26 10:50pm 296 4 G 8 75° 13% - - 21° 91° 74.4° - - -
6/26 10:40pm 302 3 G 7 75° 13% - - 21° 91° 74.5° - - -
6/26 10:30pm 289 3 G 7 75° 13% - - 20° 91° 74.8° - - -
6/26 10:20pm 299 3 G 7 75° 13% - - 21° 91° 74.8° - - -
6/26 10:10pm 300 4 G 10 76° 12% - - 21° 91° 74.8° - - -
6/26 10:00pm 312 6 G 12 76° 12% - - 20° 91° 74.8° - - -
6/26 9:50pm 315 6 G 11 76° 12% - - 21° 91° 74.8° - - -
6/26 9:40pm 321 5 G 10 75° 13% - - 21° 91° 74.8° - - -
6/26 9:30pm 325 4 G 5 76° 13% - - 21° 91° 74.9° - - -
6/26 9:20pm 329 4 G 6 75° 13% - - 22° 91° 74.9° - - -
6/26 9:10pm 330 4 G 6 75° 13% - - 22° 91° 74.9° - - -
6/26 9:00pm 324 4 G 6 76° 13% - - 21° 91° 74.9° - - -
6/26 8:50pm 320 3 G 5 76° 12% - - 21° 91° 74.9° - - -
6/26 8:40pm 305 4 G 8 76° 12% - - 20° 91° 74.9° - - -
6/26 8:30pm 320 4 G 6 76° 12% - - 20° 91° 74.9° - - -
6/26 8:20pm 332 5 G 8 76° 12% - - 20° 91° 74.9° - - -
6/26 8:10pm 342 4 G 8 76° 13% - - 22° 91° 74.9° - - -
6/26 8:00pm 312 2 G 7 77° 13% - - 22° 91° 76.2° - - -
6/26 7:50pm 227 3 G 7 78° 13% - - 23° 91° 77.5° - - -
6/26 7:40pm 227 4 G 7 79° 13% - - 24° 91° 78.4° - - -
6/26 7:30pm 231 5 G 12 80° 13% - - 25° 91° 78.4° - - -
6/26 7:20pm 230 5 G 10 81° 15% - - 29° 91° 78.4° - - -
6/26 7:10pm 230 6 G 12 81° 16% - - 31° 91° 78.4° - - -
6/26 7:00pm 230 7 G 16 82° 16% - - 31° 91° 78.4° - - -
6/26 6:50pm 230 7 G 14 83° 15% - - 31° 91° 78.4° - - -
6/26 6:40pm 224 8 G 16 83° 14% - - 30° 91° 78.4° - - -
6/26 6:30pm 234 7 G 17 84° 13% - - 29° 91° 78.4° - - -
6/26 6:20pm 234 9 G 18 84° 13% - - 28° 91° 78.4° - - -
6/26 6:10pm 240 10 G 19 84° 12% - - 26° 91° 78.4° - - -
6/26 6:00pm 233 11 G 21 85° 10% - - 22° 91° 78.4° - - -
6/26 5:50pm 236 12 G 24 85° 10% - - 23° 91° 78.4° - - -
6/26 5:40pm 234 13 G 22 85° 10% - - 23° 91° 78.4° - - -
6/26 5:30pm 238 13 G 25 86° 11% - - 24° 91° 78.4° - - -
6/26 5:20pm 229 11 G 22 86° 11% - - 25° 91° 78.4° - - -
6/26 5:10pm 236 12 G 21 86° 11% - - 25° 91° 78.4° - - -
6/26 5:00pm 232 12 G 21 87° 11% - - 26° 91° 78.4° - - -
6/26 4:50pm 246 14 G 23 87° 11% - - 26° 91° 78.4° - - -
6/26 4:40pm 229 11 G 21 88° 12% - - 28° 91° 78.4° - - -
6/26 4:30pm 241 12 G 20 88° 11% - - 28° 91° 78.4° - - -
6/26 4:20pm 244 13 G 22 88° 11% - - 27° 91° 78.4° - - -
6/26 4:10pm 241 11 G 20 88° 12% - - 28° 91° 78.4° - - -
6/26 4:00pm 229 12 G 22 89° 11% - - 28° 91° 78.4° - - -
6/26 3:50pm 236 10 G 20 89° 11% - - 29° 91° 78.4° - - -
6/26 3:40pm 238 9 G 18 89° 11% - - 29° 91° 78.4° - - -
6/26 3:30pm 231 12 G 23 89° 11% - - 28° 91° 78.4° - - -
6/26 3:20pm 237 12 G 21 89° 11% - - 28° 91° 78.4° - - -
6/26 3:10pm 232 10 G 20 89° 11% - - 29° 91° 78.4° - - -
6/26 3:00pm 236 13 G 20 89° 11% - - 29° 91° 78.4° - - -
6/26 2:50pm 236 12 G 24 89° 13% - - 31° 91° 78.4° - - -
6/26 2:40pm 224 11 G 23 89° 12% - - 30° 91° 78.4° - - -
6/26 2:30pm 221 11 G 20 89° 12% - - 30° 91° 78.4° - - -
6/26 2:20pm 229 11 G 23 89° 12% - - 31° 91° 78.4° - - -
6/26 2:10pm 222 10 G 21 90° 12% - - 30° 91° 78.4° - - -
6/26 2:00pm 234 11 G 23 89° 12% - - 29° 91° 78.4° - - -
6/26 1:50pm 215 10 G 23 90° 12% - - 29° 91° 78.4° - - -
6/26 1:40pm 214 10 G 21 90° 11% - - 29° 90.9° 78.4° - - -
6/26 1:30pm 229 11 G 20 90° 12% - - 29° 90.9° 78.4° - - -
6/26 1:20pm 237 10 G 17 90° 12% - - 30° 90.9° 78.4° - - -
6/26 1:10pm 234 9 G 19 90° 12% - - 31° 90.9° 78.4° - - -
6/26 1:00pm 231 10 G 19 89° 12% - - 30° 90.9° 78.4° - - -
6/26 12:50pm 236 10 G 20 89° 12% - - 31° 90.9° 78.4° - - -
6/26 12:40pm 246 9 G 17 90° 12% - - 31° 90.9° 78.4° - - -
6/26 12:30pm 258 8 G 16 89° 12% - - 29° 89.4° 78.4° - - -
6/26 12:20pm 242 11 G 20 88° 11% - - 28° 89.4° 78.4° - - -
6/26 12:10pm 246 10 G 21 88° 11% - - 28° 89.3° 78.4° - - -
6/26 12:00pm 237 12 G 22 88° 12% - - 29° 89.3° 78.4° - - -
6/26 11:50am 219 9 G 17 88° 12% - - 30° 89.2° 78.4° - - -
6/26 11:40am 251 11 G 18 88° 12% - - 29° 88.8° 78.4° - - -
6/26 11:30am 256 9 G 16 88° 13% - - 30° 88.8° 78.4° - - -
6/26 11:20am 242 8 G 19 88° 14% - - 32° 88.8° 78.4° - - -
6/26 11:10am 256 8 G 18 88° 14% - - 33° 88.4° 78.4° - - -
6/26 11:00am 251 7 G 15 87° 14% - - 33° 88.1° 78.4° - - -
6/26 10:50am 250 7 G 14 87° 14% - - 33° 88° 78.4° - - -
6/26 10:40am 273 7 G 13 87° 14% - - 33° 88° 78.4° - - -
6/26 10:30am 268 7 G 12 87° 14% - - 32° 87.2° 78.4° - - -
6/26 10:20am 257 6 G 12 86° 15% - - 33° 87.1° 78.4° - - -
6/26 10:10am 254 7 G 14 86° 14% - - 31° 86.9° 78.4° - - -
6/26 10:00am 265 5 G 12 86° 15% - - 32° 86.9° 78.4° - - -
6/26 9:50am 257 5 G 13 86° 15% - - 33° 86.4° 78.4° - - -
6/26 9:40am 258 5 G 9 85° 15% - - 32° 85.9° 78.4° - - -
6/26 9:30am 262 5 G 9 85° 15% - - 32° 85.7° 78.4° - - -
6/26 9:20am 259 4 G 7 85° 16% - - 33° 85.2° 78.4° - - -
6/26 9:10am 247 4 G 8 85° 16% - - 33° 85.2° 78.4° - - -
6/26 9:00am 261 4 G 8 85° 15% - - 32° 85.2° 78.4° - - -
6/26 8:50am 296 4 G 8 84° 15% - - 32° 84.9° 78.4° - - -
6/26 8:40am 308 6 G 10 84° 15% - - 31° 84.8° 78.4° - - -
6/26 8:30am 316 5 G 10 84° 15% - - 32° 84.6° 78.4° - - -
6/26 8:20am 345 6 G 9 83° 15% - - 31° 84.1° 78.4° - - -
6/26 8:10am 350 6 G 9 83° 16% - - 32° 83.6° 78.4° - - -
6/26 8:00am 350 7 G 11 83° 15% - - 31° 83.4° 78.4° - - -
6/26 7:50am 352 5 G 10 83° 16% - - 31° 83.1° 78.4° - - -
6/26 7:40am 351 6 G 9 82° 15% - - 31° 82.9° 78.4° - - -
6/26 7:30am 0 7 G 11 82° 16% - - 31° 82.3° 78.4° - - -
6/26 7:20am 5 7 G 11 81° 16% - - 30° 81.8° 78.4° - - -
6/26 7:10am 4 7 G 12 81° 16% - - 30° 81.8° 78.4° - - -
6/26 7:00am 9 8 G 10 81° 15% - - 29° 81.8° 78.4° - - -
6/26 6:50am 0 8 G 11 81° 15% - - 28° 81.8° 78.4° - - -
6/26 6:40am 357 8 G 12 80° 15% - - 28° 81.8° 78.4° - - -
6/26 6:30am 359 8 G 12 80° 15% - - 28° 81.8° 78.4° - - -
6/26 6:20am 3 7 G 11 80° 15% - - 28° 81.8° 78.4° - - -
6/26 6:10am 359 8 G 12 80° 15% - - 29° 81.8° 78.4° - - -
6/26 6:00am 2 7 G 11 80° 16% - - 30° 81.8° 78.4° - - -